Time;durP1;ratioP1;P1;durP2;ratioP2;P2;SDS_P1;SDS_P2;PMS_P1;PMS_P2;Temp;Humidity;BMP_temperature;BMP_pressure;BME280_temperature;BME280_humidity;BME280_pressure;Samples;Min_cycle;Max_cycle;Signal;HPM_P1;HPM_P2
2023/03/16 00:02:00;;;;;;;9.98;5.70;;;;;;;5.25;93.20;101594.56;5017562;28;20037;-72
2023/03/16 00:04:26;;;;;;;9.93;5.68;;;;;;;5.27;90.31;101594.41;5032313;28;20091;-72
2023/03/16 00:06:51;;;;;;;8.98;5.55;;;;;;;5.28;91.93;101588.00;5033671;28;20584;-72
2023/03/16 00:09:16;;;;;;;9.55;5.38;;;;;;;5.26;92.81;101598.09;5029191;28;20057;-72
2023/03/16 00:11:42;;;;;;;9.23;5.65;;;;;;;5.24;91.21;101584.00;5025869;28;20040;-72
2023/03/16 00:14:07;;;;;;;9.00;5.72;;;;;;;5.22;96.45;101581.47;5033273;28;20128;-72
2023/03/16 00:16:34;;;;;;;8.32;5.93;;;;;;;5.26;93.52;101582.81;5012525;28;20068;-72
2023/03/16 00:19:01;;;;;;;7.97;5.65;;;;;;;5.28;93.26;101580.81;5026564;28;20021;-72
2023/03/16 00:21:29;;;;;;;9.40;6.00;;;;;;;5.28;94.70;101574.59;5012041;28;20106;-72
2023/03/16 00:23:54;;;;;;;8.75;6.00;;;;;;;5.31;96.20;101569.75;5025585;28;20488;-72
2023/03/16 00:26:21;;;;;;;8.68;5.90;;;;;;;5.26;91.99;101569.41;5010512;28;20034;-72
2023/03/16 00:28:46;;;;;;;10.18;5.60;;;;;;;5.24;93.85;101567.88;5019827;28;20036;-72
2023/03/16 00:31:13;;;;;;;9.38;5.78;;;;;;;5.22;93.65;101565.38;5022530;28;20030;-72
2023/03/16 00:33:41;;;;;;;8.35;5.43;;;;;;;5.20;95.66;101561.22;5022554;28;20053;-72
2023/03/16 00:36:08;;;;;;;11.75;6.00;;;;;;;5.19;94.64;101563.03;5010201;28;20045;-72
2023/03/16 00:38:36;;;;;;;8.10;5.65;;;;;;;5.23;97.48;101564.38;5023194;28;20029;-72
2023/03/16 00:41:03;;;;;;;7.07;5.30;;;;;;;5.20;96.30;101562.03;5020886;28;20041;-72
2023/03/16 00:43:39;;;;;;;10.27;6.20;;;;;;;5.24;95.97;101554.47;5015584;28;20061;-72
2023/03/16 00:46:06;;;;;;;7.63;5.65;;;;;;;5.19;97.41;101554.16;5012701;28;20112;-72
2023/03/16 00:48:33;;;;;;;8.30;5.75;;;;;;;5.12;96.33;101549.50;5024959;28;20052;-72
2023/03/16 00:51:00;;;;;;;7.32;5.60;;;;;;;5.19;98.09;101548.81;5015270;28;20081;-72
2023/03/16 00:53:25;;;;;;;8.23;5.78;;;;;;;5.19;100.00;101543.44;5027049;28;20087;-72
2023/03/16 00:55:52;;;;;;;9.80;6.38;;;;;;;5.22;98.53;101545.78;5025176;28;20029;-72
2023/03/16 00:58:18;;;;;;;9.20;6.10;;;;;;;5.19;96.46;101543.44;5021203;28;20063;-72
2023/03/16 01:00:44;;;;;;;10.05;6.63;;;;;;;5.23;97.46;101545.59;5014009;28;20030;-72
2023/03/16 01:03:10;;;;;;;10.18;6.63;;;;;;;5.17;97.54;101534.72;5024940;28;20034;-72
2023/03/16 01:05:39;;;;;;;14.13;6.93;;;;;;;5.15;100.00;101530.38;5018642;28;20131;-72
2023/03/16 01:08:04;;;;;;;8.00;6.38;;;;;;;5.25;98.41;101527.47;5010433;28;20782;-72
2023/03/16 01:10:30;;;;;;;9.63;6.63;;;;;;;5.17;100.00;101514.09;5009015;28;20033;-72
2023/03/16 01:12:55;;;;;;;8.98;6.10;;;;;;;5.15;97.00;101518.81;5008717;28;20060;-72
2023/03/16 01:15:21;;;;;;;8.98;6.18;;;;;;;5.13;100.00;101512.75;5004913;28;20437;-72
2023/03/16 01:17:46;;;;;;;8.80;6.47;;;;;;;5.18;99.03;101514.91;5020147;28;20038;-72
2023/03/16 01:20:13;;;;;;;10.50;6.20;;;;;;;5.16;100.00;101512.41;5006002;28;20033;-72
2023/03/16 01:22:39;;;;;;;9.77;5.90;;;;;;;5.14;99.15;101498.34;5012463;28;20040;-72
2023/03/16 01:25:05;;;;;;;8.45;5.90;;;;;;;5.20;100.00;101494.97;5014021;28;20037;-72
2023/03/16 01:27:30;;;;;;;7.40;5.95;;;;;;;5.21;100.00;101490.41;5015439;28;20025;-72
2023/03/16 01:29:55;;;;;;;8.35;5.93;;;;;;;5.21;98.94;101490.41;5019161;28;20424;-72
2023/03/16 01:32:21;;;;;;;9.57;5.95;;;;;;;5.27;97.16;101487.06;5006578;28;20030;-72
2023/03/16 01:34:46;;;;;;;8.20;5.68;;;;;;;5.24;98.74;101477.50;5009016;28;20029;-72
2023/03/16 01:37:11;;;;;;;9.18;5.68;;;;;;;5.20;98.25;101478.84;5017272;28;20080;-72
2023/03/16 01:39:36;;;;;;;9.57;5.90;;;;;;;5.20;99.98;101483.41;5003419;28;20026;-72
2023/03/16 01:42:02;;;;;;;9.88;5.63;;;;;;;5.19;97.41;101479.03;5017522;28;20044;-72
2023/03/16 01:44:29;;;;;;;8.63;6.47;;;;;;;5.14;100.00;101477.69;4990366;28;20085;-72
2023/03/16 01:46:55;;;;;;;7.90;5.57;;;;;;;5.15;100.00;101474.03;5005779;28;20092;-72
2023/03/16 01:49:25;;;;;;;8.60;5.63;;;;;;;5.18;100.00;101485.41;5001660;28;20033;-72
2023/03/16 01:51:56;;;;;;;9.70;6.15;;;;;;;5.17;100.00;101481.06;5015762;28;20401;-72
2023/03/16 01:54:30;;;;;;;8.13;6.50;;;;;;;5.22;100.00;101478.69;5006203;28;20026;-72
2023/03/16 01:57:04;;;;;;;11.88;6.05;;;;;;;5.19;100.00;101473.66;5007346;28;20110;-72
2023/03/16 01:59:35;;;;;;;9.27;5.57;;;;;;;5.21;100.00;101471.63;5007355;28;20172;-72
2023/03/16 02:02:01;;;;;;;8.90;6.38;;;;;;;5.20;100.00;101476.19;5004883;28;20018;-72
2023/03/16 02:04:51;;;;;;;8.25;5.80;;;;;;;5.23;100.00;101462.41;5004560;28;20508;-72
2023/03/16 02:07:18;;;;;;;8.00;5.65;;;;;;;5.23;100.00;101461.59;5005892;28;20154;-72
2023/03/16 02:09:47;;;;;;;7.53;5.47;;;;;;;5.25;100.00;101464.91;5017970;28;20025;-72
2023/03/16 02:12:19;;;;;;;9.10;5.63;;;;;;;5.19;98.32;101462.94;5005109;28;20470;-72
2023/03/16 02:14:47;;;;;;;8.57;5.38;;;;;;;5.22;100.00;101459.91;5013464;28;20056;-72
2023/03/16 02:17:15;;;;;;;7.03;5.15;;;;;;;5.24;100.00;101457.88;5001022;28;20022;-72
2023/03/16 02:19:52;;;;;;;8.38;5.43;;;;;;;5.21;100.00;101458.22;5003283;28;20061;-72
2023/03/16 02:22:18;;;;;;;9.00;5.55;;;;;;;5.23;100.00;101448.16;5008034;28;20412;-72
2023/03/16 02:24:44;;;;;;;10.98;5.65;;;;;;;5.23;100.00;101450.84;5002014;28;20109;-72
2023/03/16 02:27:15;;;;;;;8.98;5.63;;;;;;;5.17;100.00;101457.75;5017943;28;20037;-72
2023/03/16 02:30:02;;;;;;;9.13;5.70;;;;;;;5.26;100.00;101453.19;5012050;28;20127;-72
2023/03/16 02:32:30;;;;;;;7.25;5.47;;;;;;;5.23;100.00;101459.72;4998428;28;20033;-72
2023/03/16 02:34:58;;;;;;;8.48;5.95;;;;;;;5.22;100.00;101443.81;5016678;28;20075;-72
2023/03/16 02:37:25;;;;;;;9.25;5.10;;;;;;;5.22;100.00;101441.94;5013710;28;20042;-72
2023/03/16 02:39:51;;;;;;;7.18;5.28;;;;;;;5.26;100.00;101442.44;5024994;28;20165;-72
2023/03/16 02:42:20;;;;;;;7.63;5.78;;;;;;;5.21;100.00;101444.81;5009399;28;20471;-72
2023/03/16 02:44:51;;;;;;;7.88;5.68;;;;;;;5.29;100.00;101450.16;5006849;28;20038;-72
2023/03/16 02:47:44;;;;;;;8.85;5.53;;;;;;;5.31;100.00;101446.28;5016993;28;20124;-72
2023/03/16 02:50:11;;;;;;;7.30;5.38;;;;;;;5.22;100.00;101441.13;5012410;28;20160;-72
2023/03/16 02:52:38;;;;;;;9.45;5.68;;;;;;;5.23;100.00;101438.25;5010966;28;20050;-72
2023/03/16 02:55:05;;;;;;;9.63;5.85;;;;;;;5.21;100.00;101439.44;5005823;28;20034;-72
2023/03/16 02:57:31;;;;;;;10.10;5.80;;;;;;;5.22;100.00;101430.38;5016946;28;20087;-72
2023/03/16 02:59:57;;;;;;;7.18;5.20;;;;;;;5.20;100.00;101427.06;5015694;28;21735;-72
2023/03/16 03:02:22;;;;;;;8.93;5.55;;;;;;;5.24;100.00;101417.63;5010688;28;20057;-72
2023/03/16 03:04:48;;;;;;;7.47;5.35;;;;;;;5.16;100.00;101418.50;5015294;28;20037;-72
2023/03/16 03:07:14;;;;;;;9.25;5.35;;;;;;;5.17;100.00;101422.03;5031706;28;20068;-72
2023/03/16 03:09:46;;;;;;;9.20;6.00;;;;;;;5.20;100.00;101417.16;5015812;28;20091;-72
2023/03/16 03:12:12;;;;;;;9.18;5.80;;;;;;;5.19;100.00;101415.47;5017472;28;20036;-72
2023/03/16 03:14:37;;;;;;;7.45;5.35;;;;;;;5.15;100.00;101431.09;5011983;28;20022;-72
2023/03/16 03:17:06;;;;;;;9.07;5.93;;;;;;;5.20;100.00;101427.06;5021004;28;20079;-72
2023/03/16 03:19:32;;;;;;;7.05;5.68;;;;;;;5.18;100.00;101419.19;4998531;28;20112;-71
2023/03/16 03:21:58;;;;;;;7.03;5.53;;;;;;;5.14;100.00;101418.69;5016106;28;20041;-72
2023/03/16 03:24:23;;;;;;;6.85;5.70;;;;;;;5.14;100.00;101418.69;5023421;28;20116;-72
2023/03/16 03:26:49;;;;;;;7.38;5.50;;;;;;;5.20;100.00;101416.31;5007523;28;20026;-72
2023/03/16 03:29:14;;;;;;;7.38;5.63;;;;;;;5.14;100.00;101413.31;4997867;28;20426;-72
2023/03/16 03:31:39;;;;;;;8.35;5.45;;;;;;;5.15;100.00;101420.34;5019954;28;20033;-72
2023/03/16 03:34:05;;;;;;;7.85;5.60;;;;;;;5.16;100.00;101421.19;5017915;28;20065;-72
2023/03/16 03:36:32;;;;;;;7.10;5.30;;;;;;;5.13;100.00;101417.03;5002493;28;20050;-72
2023/03/16 03:38:57;;;;;;;8.35;5.63;;;;;;;5.15;100.00;101412.31;5017117;28;20061;-72
2023/03/16 03:41:22;;;;;;;8.77;5.60;;;;;;;5.09;100.00;101407.66;5014375;28;20535;-72
2023/03/16 03:43:48;;;;;;;7.72;5.30;;;;;;;5.09;100.00;101399.59;5018224;28;20113;-72
2023/03/16 03:46:13;;;;;;;7.18;5.00;;;;;;;5.13;100.00;101410.81;5020209;28;20120;-72
2023/03/16 03:48:39;;;;;;;8.13;5.07;;;;;;;5.10;100.00;101411.16;5005471;28;20126;-72
2023/03/16 03:51:05;;;;;;;8.30;4.93;;;;;;;5.12;100.00;101412.66;5010086;28;20529;-72
2023/03/16 03:53:31;;;;;;;9.05;5.13;;;;;;;5.11;100.00;101412.84;5014684;28;20029;-72
2023/03/16 03:55:56;;;;;;;7.20;5.22;;;;;;;5.13;100.00;101406.28;5012794;28;20029;-71
2023/03/16 03:58:22;;;;;;;6.72;5.05;;;;;;;5.13;100.00;101406.28;5007187;28;20358;-72
2023/03/16 04:00:47;;;;;;;8.90;5.53;;;;;;;5.18;100.00;101404.91;4989732;28;20161;-72
2023/03/16 04:03:12;;;;;;;7.88;5.35;;;;;;;5.17;100.00;101397.91;5006817;28;20068;-72
2023/03/16 04:05:38;;;;;;;6.63;4.78;;;;;;;5.19;100.00;101399.38;5012145;28;20025;-72
2023/03/16 04:08:03;;;;;;;11.02;5.20;;;;;;;5.18;100.00;101386.13;5013394;28;20030;-72
2023/03/16 04:10:30;;;;;;;8.40;4.93;;;;;;;5.17;100.00;101390.66;5013304;28;20030;-72
2023/03/16 04:12:55;;;;;;;8.75;4.88;;;;;;;5.14;100.00;101385.66;5012351;28;20037;-72
2023/03/16 04:15:21;;;;;;;7.88;5.15;;;;;;;5.18;100.00;101384.31;5007217;28;20022;-72
2023/03/16 04:17:47;;;;;;;7.15;4.80;;;;;;;5.21;100.00;101381.25;5008298;28;20180;-71
2023/03/16 04:20:17;;;;;;;9.32;4.93;;;;;;;5.24;100.00;101380.06;5008722;28;20029;-72
2023/03/16 04:22:44;;;;;;;6.95;4.60;;;;;;;5.17;100.00;101384.47;5001105;28;20037;-72
2023/03/16 04:25:10;;;;;;;6.30;4.70;;;;;;;5.19;100.00;101380.59;5006014;28;20074;-72
2023/03/16 04:27:35;;;;;;;7.18;4.35;;;;;;;5.20;100.00;101378.75;5014120;28;20040;-72
2023/03/16 04:30:07;;;;;;;8.50;4.80;;;;;;;5.16;100.00;101383.63;4995981;28;20027;-72
2023/03/16 04:32:33;;;;;;;7.53;4.85;;;;;;;5.17;100.00;101382.63;5012360;28;20038;-72
2023/03/16 04:34:58;;;;;;;6.20;4.72;;;;;;;5.14;100.00;101380.28;5005558;28;20449;-72
2023/03/16 04:37:24;;;;;;;7.47;4.70;;;;;;;5.17;100.00;101376.44;5018468;28;20036;-72
2023/03/16 04:39:49;;;;;;;5.68;4.38;;;;;;;5.17;100.00;101376.44;5011144;28;20036;-72
2023/03/16 04:42:14;;;;;;;7.55;4.20;;;;;;;5.16;100.00;101378.25;5004723;28;20431;-72
2023/03/16 04:44:43;;;;;;;8.45;4.50;;;;;;;5.13;100.00;101370.56;5013117;28;20036;-72
2023/03/16 04:47:14;;;;;;;10.48;4.47;;;;;;;5.13;100.00;101374.09;5013807;28;20417;-72
2023/03/16 04:49:39;;;;;;;12.57;4.33;;;;;;;5.14;100.00;101373.06;5000174;28;20038;-72
2023/03/16 04:52:06;;;;;;;8.25;4.05;;;;;;;5.17;100.00;101371.06;5014116;28;20301;-72
2023/03/16 04:54:32;;;;;;;8.80;4.30;;;;;;;5.21;100.00;101372.34;5012936;28;20052;-72
2023/03/16 04:56:58;;;;;;;7.13;4.20;;;;;;;5.18;100.00;101376.25;4993934;28;20979;-72
2023/03/16 04:59:23;;;;;;;6.00;4.07;;;;;;;5.20;100.00;101368.03;4996648;28;20038;-72
2023/03/16 05:01:49;;;;;;;8.07;3.88;;;;;;;5.21;100.00;101367.00;5009942;28;20139;-72
2023/03/16 05:04:15;;;;;;;7.88;4.07;;;;;;;5.20;100.00;101363.50;4991317;28;20034;-72
2023/03/16 05:06:40;;;;;;;6.03;4.00;;;;;;;5.25;100.00;101369.16;5003185;28;20116;-72
2023/03/16 05:09:07;;;;;;;5.63;4.00;;;;;;;5.21;100.00;101364.31;5012662;28;20171;-72
2023/03/16 05:11:34;;;;;;;6.60;4.20;;;;;;;5.19;100.00;101351.06;5007845;28;20025;-72
2023/03/16 05:14:00;;;;;;;7.95;4.20;;;;;;;5.20;100.00;101357.28;5005727;28;20034;-72
2023/03/16 05:16:26;;;;;;;10.35;4.65;;;;;;;5.19;100.00;101355.63;5015075;28;20489;-72
2023/03/16 05:18:52;;;;;;;6.80;3.88;;;;;;;5.19;100.00;101343.03;5005328;28;20049;-72
2023/03/16 05:21:17;;;;;;;7.82;3.65;;;;;;;5.17;100.00;101346.91;5012941;28;20037;-72
2023/03/16 05:23:42;;;;;;;7.03;3.85;;;;;;;5.18;100.00;101349.44;5002800;28;20033;-72
2023/03/16 05:26:07;;;;;;;7.55;3.97;;;;;;;5.21;100.00;101348.22;5012311;28;20502;-72
2023/03/16 05:28:33;;;;;;;5.63;4.10;;;;;;;5.20;100.00;101351.94;5018430;28;20583;-72
2023/03/16 05:30:58;;;;;;;8.90;4.30;;;;;;;5.18;100.00;101348.56;5009104;28;20034;-72
2023/03/16 05:33:24;;;;;;;7.63;4.18;;;;;;;5.16;100.00;101340.69;5015721;28;20108;-72
2023/03/16 05:35:50;;;;;;;6.70;3.90;;;;;;;5.23;100.00;101340.84;5018511;28;20040;-72
2023/03/16 05:38:15;;;;;;;6.30;3.85;;;;;;;5.19;100.00;101342.19;5011975;28;20121;-72
2023/03/16 05:40:41;;;;;;;6.90;3.90;;;;;;;5.19;100.00;101334.16;5008625;28;20029;-72
2023/03/16 05:43:06;;;;;;;8.60;4.03;;;;;;;5.22;100.00;101333.78;5015305;28;20053;-72
2023/03/16 05:45:32;;;;;;;8.20;3.85;;;;;;;5.20;100.00;101331.28;5001568;28;20033;-72
2023/03/16 05:47:57;;;;;;;6.28;3.88;;;;;;;5.24;100.00;101329.06;4994887;28;20051;-72
2023/03/16 05:50:24;;;;;;;8.50;4.20;;;;;;;5.23;100.00;101322.88;5009811;28;20045;-72
2023/03/16 05:52:50;;;;;;;8.50;4.30;;;;;;;5.23;100.00;101322.06;5006804;28;20034;-72
2023/03/16 05:55:16;;;;;;;6.43;3.63;;;;;;;5.19;100.00;101318.88;5009754;28;20030;-72
2023/03/16 05:57:44;;;;;;;6.55;3.80;;;;;;;5.19;100.00;101312.69;4994588;28;20617;-72
2023/03/16 06:00:14;;;;;;;7.93;3.90;;;;;;;5.23;100.00;101316.69;5005410;28;20133;-72
2023/03/16 06:02:47;;;;;;;6.95;3.90;;;;;;;5.21;100.00;101316.88;4989283;28;20092;-72
2023/03/16 06:05:12;;;;;;;7.18;4.00;;;;;;;5.25;100.00;101322.69;5001911;28;20026;-72
2023/03/16 06:07:38;;;;;;;7.47;4.10;;;;;;;5.24;100.00;101321.88;4991658;28;20033;-72
2023/03/16 06:10:04;;;;;;;9.07;4.18;;;;;;;5.28;100.00;101322.34;5000509;28;20053;-72
2023/03/16 06:12:30;;;;;;;8.77;4.10;;;;;;;5.27;100.00;101324.19;5003003;28;20121;-72
2023/03/16 06:14:55;;;;;;;7.78;4.22;;;;;;;5.29;100.00;101321.34;5017146;28;20121;-72
2023/03/16 06:17:20;;;;;;;8.95;4.40;;;;;;;5.36;100.00;101322.31;5007866;28;20029;-72
2023/03/16 06:19:46;;;;;;;7.25;4.07;;;;;;;5.36;100.00;101314.25;5016372;28;20038;-72
2023/03/16 06:22:12;;;;;;;6.38;3.50;;;;;;;5.32;100.00;101321.81;4995842;28;20025;-72
2023/03/16 06:24:37;;;;;;;6.18;4.05;;;;;;;5.40;100.00;101328.13;5001018;28;20048;-72
2023/03/16 06:27:03;;;;;;;8.38;4.07;;;;;;;5.38;100.00;101317.59;4990275;28;20036;-72
2023/03/16 06:29:28;;;;;;;9.48;4.22;;;;;;;5.42;100.00;101321.59;5013562;28;20022;-72
2023/03/16 06:31:54;;;;;;;7.43;4.03;;;;;;;5.44;100.00;101324.09;5002016;28;20026;-72
2023/03/16 06:34:19;;;;;;;8.00;4.00;;;;;;;5.42;100.00;101310.84;5004353;28;20026;-72
2023/03/16 06:36:45;;;;;;;9.07;4.20;;;;;;;5.41;100.00;101313.72;5015893;28;20033;-72
2023/03/16 06:39:10;;;;;;;6.80;4.05;;;;;;;5.39;100.00;101315.72;4996556;28;20036;-72
2023/03/16 06:41:36;;;;;;;9.80;4.50;;;;;;;5.38;100.00;101306.84;5007674;28;20042;-72
2023/03/16 06:44:02;;;;;;;8.73;4.10;;;;;;;5.40;100.00;101306.66;5010570;28;20029;-72
2023/03/16 06:46:28;;;;;;;7.60;3.88;;;;;;;5.39;100.00;101303.16;5011201;28;20468;-72
2023/03/16 06:48:53;;;;;;;8.77;4.20;;;;;;;5.37;100.00;101305.16;4993781;28;20121;-72
2023/03/16 06:51:18;;;;;;;7.53;3.90;;;;;;;5.41;100.00;101305.66;5010205;28;20042;-71
2023/03/16 06:53:44;;;;;;;6.93;4.40;;;;;;;5.44;100.00;101314.19;5006619;28;20161;-72
2023/03/16 06:56:10;;;;;;;5.43;4.05;;;;;;;5.41;100.00;101316.41;4986343;28;20746;-72
2023/03/16 06:58:35;;;;;;;9.95;4.28;;;;;;;5.43;100.00;101312.50;5001673;28;20057;-72
2023/03/16 07:01:03;;;;;;;6.97;4.20;;;;;;;5.49;100.00;101313.63;4989065;28;20425;-72
2023/03/16 07:03:31;;;;;;;9.80;4.22;;;;;;;5.47;100.00;101311.13;5002622;28;20029;-72
2023/03/16 07:05:56;;;;;;;9.20;4.07;;;;;;;5.44;100.00;101319.53;4988345;28;20032;-72
2023/03/16 07:08:21;;;;;;;6.93;3.88;;;;;;;5.49;100.00;101306.41;5008721;28;20029;-72
2023/03/16 07:10:48;;;;;;;7.20;4.25;;;;;;;5.49;100.00;101309.09;5006431;28;20041;-72
2023/03/16 07:13:14;;;;;;;7.53;4.30;;;;;;;5.51;100.00;101311.63;5012644;28;20076;-72
2023/03/16 07:15:39;;;;;;;8.50;3.95;;;;;;;5.57;100.00;101302.00;5010563;28;20096;-72
2023/03/16 07:18:05;;;;;;;6.88;3.83;;;;;;;5.60;100.00;101305.16;4995563;28;20042;-72
2023/03/16 07:20:31;;;;;;;8.02;4.25;;;;;;;5.63;100.00;101293.22;5010818;28;20025;-72
2023/03/16 07:22:57;;;;;;;7.43;3.97;;;;;;;5.64;100.00;101276.09;5018386;28;20065;-72
2023/03/16 07:25:22;;;;;;;6.28;3.72;;;;;;;5.67;100.00;101284.59;5000254;28;20060;-72
2023/03/16 07:27:48;;;;;;;8.20;4.10;;;;;;;5.70;100.00;101290.66;5004386;28;20077;-72
2023/03/16 07:30:13;;;;;;;5.78;3.78;;;;;;;5.72;100.00;101286.75;5016634;28;20152;-72
2023/03/16 07:32:40;;;;;;;5.95;3.80;;;;;;;5.77;100.00;101292.44;5017429;28;20057;-72
2023/03/16 07:35:07;;;;;;;5.07;3.72;;;;;;;5.79;100.00;101286.88;4999536;28;20029;-72
2023/03/16 07:37:33;;;;;;;7.47;3.95;;;;;;;5.80;100.00;101288.56;5006636;28;20046;-72
2023/03/16 07:39:59;;;;;;;8.02;3.35;;;;;;;5.83;100.00;101289.00;5007310;28;20039;-72
2023/03/16 07:42:24;;;;;;;6.32;3.45;;;;;;;5.81;100.00;101292.88;5019138;28;20040;-72
2023/03/16 07:44:50;;;;;;;6.47;3.88;;;;;;;5.84;100.00;101290.69;5013757;28;20474;-72
2023/03/16 07:47:16;;;;;;;7.72;3.60;;;;;;;5.83;100.00;101277.44;5015174;28;20025;-72
2023/03/16 07:49:43;;;;;;;9.45;3.63;;;;;;;5.87;100.00;101289.47;5009788;28;20065;-72
2023/03/16 07:52:14;;;;;;;7.20;4.07;;;;;;;5.86;100.00;101291.31;5017694;28;20049;-74
2023/03/16 07:54:40;;;;;;;9.60;3.63;;;;;;;5.98;100.00;101290.94;5005526;28;20041;-75
2023/03/16 07:57:06;;;;;;;6.80;3.50;;;;;;;6.00;100.00;101294.25;5006313;28;20037;-75
2023/03/16 07:59:31;;;;;;;10.80;4.07;;;;;;;6.00;100.00;101286.19;5002045;28;20030;-74
2023/03/16 08:01:57;;;;;;;6.70;3.53;;;;;;;6.06;100.00;101295.38;5005578;28;20034;-75
2023/03/16 08:04:22;;;;;;;10.15;4.20;;;;;;;6.08;100.00;101291.47;5012646;28;20037;-75
2023/03/16 08:06:48;;;;;;;6.75;3.92;;;;;;;6.10;100.00;101294.81;5015193;28;20033;-75
2023/03/16 08:09:16;;;;;;;7.25;3.70;;;;;;;6.16;100.00;101299.44;5023473;28;20110;-75
2023/03/16 08:11:41;;;;;;;8.65;3.70;;;;;;;6.19;100.00;101291.03;5015338;28;20037;-75
2023/03/16 08:14:07;;;;;;;8.70;4.35;;;;;;;6.26;100.00;101282.22;5010559;28;20042;-75
2023/03/16 08:16:33;;;;;;;7.05;3.97;;;;;;;6.29;100.00;101282.66;4999372;28;20486;-75
2023/03/16 08:19:01;;;;;;;9.15;3.83;;;;;;;6.32;100.00;101292.22;5006775;28;20048;-76
2023/03/16 08:21:27;;;;;;;10.85;3.85;;;;;;;6.37;100.00;101295.16;5004214;28;20146;-75
2023/03/16 08:23:52;;;;;;;7.78;4.20;;;;;;;6.41;100.00;101295.66;5032220;28;20029;-75
2023/03/16 08:26:22;;;;;;;5.60;3.80;;;;;;;6.46;100.00;101277.09;4999637;28;20033;-75
2023/03/16 08:28:51;;;;;;;6.60;3.55;;;;;;;6.48;94.47;101297.41;5018251;28;20061;-75
2023/03/16 08:31:17;;;;;;;6.68;3.78;;;;;;;6.56;96.66;101288.41;5018613;28;20068;-75
2023/03/16 08:33:45;;;;;;;5.18;3.60;;;;;;;6.57;92.87;101295.44;5009114;28;20367;-72
2023/03/16 08:36:12;;;;;;;5.95;3.78;;;;;;;6.57;88.43;101296.28;5011765;28;20117;-74
2023/03/16 08:38:42;;;;;;;7.05;4.00;;;;;;;6.61;91.42;101303.97;5020060;28;20041;-72
2023/03/16 08:41:08;;;;;;;5.78;3.40;;;;;;;6.66;97.25;101298.88;4996411;28;20036;-72
2023/03/16 08:43:36;;;;;;;8.13;3.90;;;;;;;6.70;94.80;101289.38;5014384;28;20033;-71
2023/03/16 08:46:03;;;;;;;8.18;3.80;;;;;;;6.73;92.35;101291.69;5017317;28;20085;-71
2023/03/16 08:48:36;;;;;;;8.70;3.80;;;;;;;6.76;95.59;101294.00;5017749;28;20509;-74
2023/03/16 08:51:02;;;;;;;8.70;3.70;;;;;;;6.74;89.75;101286.13;5011493;28;20593;-71
2023/03/16 08:53:29;;;;;;;9.40;3.83;;;;;;;6.79;90.06;101293.63;5018243;28;20121;-73
2023/03/16 08:56:05;;;;;;;6.63;3.85;;;;;;;6.81;91.24;101286.22;4995349;28;20033;-74
2023/03/16 08:58:33;;;;;;;6.43;3.55;;;;;;;6.86;91.71;101288.34;4996351;28;20034;-73
2023/03/16 09:01:04;;;;;;;5.43;3.63;;;;;;;6.90;88.79;101268.13;5011364;28;20034;-72
2023/03/16 09:03:31;;;;;;;5.55;3.75;;;;;;;7.00;90.36;101273.16;5012447;28;20038;-72
2023/03/16 09:06:01;;;;;;;7.63;3.60;;;;;;;7.01;85.06;101264.91;5013498;28;20037;-72
2023/03/16 09:08:27;;;;;;;6.90;3.67;;;;;;;7.08;84.93;101270.34;4995838;28;20068;-72
2023/03/16 09:11:06;;;;;;;6.82;3.65;;;;;;;7.13;84.16;101257.16;5013579;28;20408;-72
2023/03/16 09:13:32;;;;;;;6.25;3.55;;;;;;;7.18;86.26;101264.66;5013860;28;20120;-72
2023/03/16 09:15:58;;;;;;;9.75;3.72;;;;;;;7.27;82.66;101266.19;5013522;28;20037;-72
2023/03/16 09:18:26;;;;;;;7.25;4.00;;;;;;;7.37;84.08;101268.56;4995927;28;20111;-72
2023/03/16 09:20:56;;;;;;;10.57;3.70;;;;;;;7.47;83.69;101266.38;5013456;28;20029;-72
2023/03/16 09:23:21;;;;;;;7.05;3.60;;;;;;;7.51;78.86;101258.75;5013648;28;20022;-72
2023/03/16 09:25:47;;;;;;;8.07;3.58;;;;;;;7.61;79.07;101260.06;4995363;28;20032;-72
2023/03/16 09:28:12;;;;;;;6.28;3.70;;;;;;;7.67;77.77;101257.63;5013508;28;20096;-72
2023/03/16 09:30:38;;;;;;;8.73;3.40;;;;;;;7.72;79.68;101263.25;5012281;28;20080;-72
2023/03/16 09:33:03;;;;;;;6.50;3.08;;;;;;;7.77;76.82;101260.81;4995573;28;20057;-72
2023/03/16 09:35:32;;;;;;;9.30;3.33;;;;;;;7.81;75.77;101256.69;5012141;28;20108;-72
2023/03/16 09:37:57;;;;;;;7.68;3.55;;;;;;;7.83;76.31;101262.72;5012871;28;20026;-72
2023/03/16 09:40:25;;;;;;;6.55;3.33;;;;;;;7.83;75.06;101256.50;4995537;28;20109;-72
2023/03/16 09:43:20;;;;;;;7.45;3.38;;;;;;;7.90;76.24;101263.59;4995432;28;20034;-72
2023/03/16 09:45:56;;;;;;;10.43;3.28;;;;;;;8.01;75.89;101262.22;4994236;28;20457;-72
2023/03/16 09:48:23;;;;;;;6.25;3.10;;;;;;;8.09;74.92;101266.59;5013026;28;20030;-72
2023/03/16 09:50:52;;;;;;;6.00;3.28;;;;;;;8.24;73.94;101255.69;4995038;28;20054;-72
2023/03/16 09:53:23;;;;;;;8.05;3.45;;;;;;;8.43;74.27;101263.06;4995486;28;20034;-73
2023/03/16 09:55:52;;;;;;;6.00;2.93;;;;;;;8.48;69.59;101254.38;5012605;28;20029;-72
2023/03/16 09:58:20;;;;;;;5.55;3.08;;;;;;;8.55;71.66;101257.94;5012793;28;20587;-72
2023/03/16 10:01:08;;;;;;;6.90;2.80;;;;;;;8.59;71.24;101251.13;4992718;28;20043;-72
2023/03/16 10:03:40;;;;;;;5.05;2.92;;;;;;;8.68;71.36;101240.97;5012762;28;20686;-72
2023/03/16 10:06:09;;;;;;;5.30;2.85;;;;;;;8.73;69.41;101243.09;5012508;28;20470;-72
2023/03/16 10:08:58;;;;;;;7.28;2.80;;;;;;;8.76;67.59;101240.81;5012965;28;20109;-72
2023/03/16 10:11:30;;;;;;;6.72;2.80;;;;;;;8.85;68.36;101230.66;5003410;28;20049;-72
2023/03/16 10:14:03;;;;;;;5.75;2.90;;;;;;;8.95;69.32;101228.41;5011042;28;20125;-72
2023/03/16 10:16:41;;;;;;;5.38;2.95;;;;;;;8.97;66.71;101226.31;5012754;28;20076;-72
2023/03/16 10:19:36;;;;;;;3.75;2.50;;;;;;;9.09;67.39;101223.00;4994850;28;20397;-72
2023/03/16 10:22:30;;;;;;;5.68;2.75;;;;;;;9.19;67.59;101223.44;5011612;28;20083;-72
2023/03/16 10:25:11;;;;;;;5.50;2.72;;;;;;;9.23;65.00;101233.59;5011879;28;20055;-72
2023/03/16 10:27:39;;;;;;;5.65;2.83;;;;;;;9.27;63.08;101231.34;5012736;28;20073;-72
2023/03/16 10:30:33;;;;;;;8.60;2.72;;;;;;;9.38;65.87;101228.00;5012592;28;20504;-72
2023/03/16 10:33:12;;;;;;;5.32;2.58;;;;;;;9.46;65.79;101218.84;4975195;28;20466;-73
2023/03/16 10:35:50;;;;;;;5.22;2.50;;;;;;;9.47;63.02;101215.13;4992993;28;20031;-73
2023/03/16 10:38:27;;;;;;;8.63;3.20;;;;;;;9.53;64.73;101226.97;4992792;28;20055;-72
2023/03/16 10:40:53;;;;;;;8.70;2.75;;;;;;;9.53;64.15;101214.28;4991597;28;20023;-73
2023/03/16 10:43:19;;;;;;;5.60;2.72;;;;;;;9.58;61.60;101219.06;4975517;28;20022;-74
2023/03/16 10:45:45;;;;;;;6.88;2.88;;;;;;;9.63;60.64;101200.38;4975519;28;20544;-73
2023/03/16 10:48:27;;;;;;;12.15;3.15;;;;;;;9.79;64.60;101211.78;4996138;28;20038;-80
2023/03/16 10:50:55;;;;;;;5.35;2.70;;;;;;;9.89;61.47;101212.16;4977332;28;20057;-73
2023/03/16 10:53:28;;;;;;;7.05;2.70;;;;;;;9.98;62.61;101200.09;4995555;28;20100;-73
2023/03/16 10:56:18;;;;;;;4.68;2.53;;;;;;;10.08;62.07;101205.88;4995084;28;20022;-73
2023/03/16 10:58:45;;;;;;;4.85;2.42;;;;;;;10.14;60.55;101200.66;4996770;28;20092;-73
2023/03/16 11:01:27;;;;;;;6.07;2.83;;;;;;;10.15;60.00;101196.91;4976345;28;20038;-73
2023/03/16 11:03:55;;;;;;;4.05;2.45;;;;;;;10.17;60.97;101184.00;4996571;28;20244;-73
2023/03/16 11:06:29;;;;;;;6.22;2.33;;;;;;;10.25;60.28;101187.28;4995051;28;20045;-73
2023/03/16 11:09:07;;;;;;;4.90;2.33;;;;;;;10.36;60.68;101183.13;4995111;28;20030;-73
2023/03/16 11:11:33;;;;;;;6.05;2.65;;;;;;;10.42;60.13;101178.72;4996696;28;20474;-73
2023/03/16 11:14:03;;;;;;;4.32;2.30;;;;;;;10.55;58.78;101183.22;4996159;28;20504;-73
2023/03/16 11:16:30;;;;;;;6.75;1.88;;;;;;;10.69;58.70;101168.56;4995220;28;20038;-73
2023/03/16 11:18:59;;;;;;;6.10;3.47;;;;;;;10.78;58.47;101161.84;4996179;28;20034;-73
2023/03/16 11:21:37;;;;;;;5.43;2.15;;;;;;;10.86;59.96;101157.22;4994939;28;20401;-73
2023/03/16 11:24:05;;;;;;;5.05;2.65;;;;;;;10.96;58.76;101146.72;4996035;28;20582;-73
2023/03/16 11:26:33;;;;;;;3.72;1.98;;;;;;;10.97;56.55;101156.50;4996255;28;20030;-73
2023/03/16 11:29:08;;;;;;;5.80;2.10;;;;;;;10.94;55.31;101159.66;4995869;28;20386;-73
2023/03/16 11:32:07;;;;;;;4.45;2.20;;;;;;;10.91;56.18;101160.91;4994758;28;20109;-73